sensor_id;sensor_type;location;lat;lon;timestamp;temperature;humidity
65203;HTU21D;51788;45.124;38.966;2024-03-08T00:00:16;2.13;93.33
65203;HTU21D;51788;45.124;38.966;2024-03-08T00:02:47;2.15;93.36
65203;HTU21D;51788;45.124;38.966;2024-03-08T00:05:16;2.19;93.34
65203;HTU21D;51788;45.124;38.966;2024-03-08T00:07:43;2.26;93.33
65203;HTU21D;51788;45.124;38.966;2024-03-08T00:10:11;2.27;93.24
65203;HTU21D;51788;45.124;38.966;2024-03-08T00:12:42;2.26;93.29
65203;HTU21D;51788;45.124;38.966;2024-03-08T00:15:15;2.32;93.38
65203;HTU21D;51788;45.124;38.966;2024-03-08T00:17:41;2.34;93.24
65203;HTU21D;51788;45.124;38.966;2024-03-08T00:20:08;2.31;93.33
65203;HTU21D;51788;45.124;38.966;2024-03-08T00:22:34;2.34;93.44
65203;HTU21D;51788;45.124;38.966;2024-03-08T00:25:02;2.32;93.45
65203;HTU21D;51788;45.124;38.966;2024-03-08T00:27:28;2.34;93.56
65203;HTU21D;51788;45.124;38.966;2024-03-08T00:29:59;2.35;93.53
65203;HTU21D;51788;45.124;38.966;2024-03-08T00:32:26;2.39;93.69
65203;HTU21D;51788;45.124;38.966;2024-03-08T00:34:53;2.36;93.55
65203;HTU21D;51788;45.124;38.966;2024-03-08T00:37:23;2.41;93.75
65203;HTU21D;51788;45.124;38.966;2024-03-08T00:39:49;2.43;93.66
65203;HTU21D;51788;45.124;38.966;2024-03-08T00:42:19;2.40;93.69
65203;HTU21D;51788;45.124;38.966;2024-03-08T00:44:46;2.35;93.75
65203;HTU21D;51788;45.124;38.966;2024-03-08T00:47:13;2.35;93.88
65203;HTU21D;51788;45.124;38.966;2024-03-08T00:49:41;2.35;93.84
65203;HTU21D;51788;45.124;38.966;2024-03-08T00:52:07;2.38;93.92
65203;HTU21D;51788;45.124;38.966;2024-03-08T00:54:34;2.38;93.87
65203;HTU21D;51788;45.124;38.966;2024-03-08T00:57:02;2.40;93.86
65203;HTU21D;51788;45.124;38.966;2024-03-08T00:59:29;2.37;93.87
65203;HTU21D;51788;45.124;38.966;2024-03-08T01:01:55;2.37;93.88
65203;HTU21D;51788;45.124;38.966;2024-03-08T01:04:22;2.39;93.95
65203;HTU21D;51788;45.124;38.966;2024-03-08T01:06:48;2.35;93.98
65203;HTU21D;51788;45.124;38.966;2024-03-08T01:09:14;2.39;93.93
65203;HTU21D;51788;45.124;38.966;2024-03-08T01:11:43;2.39;93.89
65203;HTU21D;51788;45.124;38.966;2024-03-08T01:14:09;2.37;94.02
65203;HTU21D;51788;45.124;38.966;2024-03-08T01:16:35;2.36;94.05
65203;HTU21D;51788;45.124;38.966;2024-03-08T01:19:01;2.32;93.95
65203;HTU21D;51788;45.124;38.966;2024-03-08T01:21:29;2.26;94.07
65203;HTU21D;51788;45.124;38.966;2024-03-08T01:23:55;2.14;94.22
65203;HTU21D;51788;45.124;38.966;2024-03-08T01:26:21;2.13;94.33
65203;HTU21D;51788;45.124;38.966;2024-03-08T01:28:47;2.14;94.39
65203;HTU21D;51788;45.124;38.966;2024-03-08T01:31:13;2.15;94.17
65203;HTU21D;51788;45.124;38.966;2024-03-08T01:33:39;2.15;94.07
65203;HTU21D;51788;45.124;38.966;2024-03-08T01:36:06;2.12;94.14
65203;HTU21D;51788;45.124;38.966;2024-03-08T01:38:32;2.12;94.09
65203;HTU21D;51788;45.124;38.966;2024-03-08T01:40:59;2.15;94.04
65203;HTU21D;51788;45.124;38.966;2024-03-08T01:43:27;2.11;93.95
65203;HTU21D;51788;45.124;38.966;2024-03-08T01:45:55;2.10;94.04
65203;HTU21D;51788;45.124;38.966;2024-03-08T01:48:24;2.09;94.02
65203;HTU21D;51788;45.124;38.966;2024-03-08T01:50:51;2.08;93.95
65203;HTU21D;51788;45.124;38.966;2024-03-08T01:53:19;2.05;94.08
65203;HTU21D;51788;45.124;38.966;2024-03-08T01:55:47;2.05;94.11
65203;HTU21D;51788;45.124;38.966;2024-03-08T01:58:13;2.05;94.09
65203;HTU21D;51788;45.124;38.966;2024-03-08T02:00:48;2.07;94.17
65203;HTU21D;51788;45.124;38.966;2024-03-08T02:03:17;2.02;94.11
65203;HTU21D;51788;45.124;38.966;2024-03-08T02:05:43;1.98;94.25
65203;HTU21D;51788;45.124;38.966;2024-03-08T02:08:09;1.99;94.23
65203;HTU21D;51788;45.124;38.966;2024-03-08T02:10:41;2.02;94.17
65203;HTU21D;51788;45.124;38.966;2024-03-08T02:13:11;2.03;94.16
65203;HTU21D;51788;45.124;38.966;2024-03-08T02:15:54;2.03;94.20
65203;HTU21D;51788;45.124;38.966;2024-03-08T02:18:20;2.00;94.23
65203;HTU21D;51788;45.124;38.966;2024-03-08T02:20:51;2.03;94.30
65203;HTU21D;51788;45.124;38.966;2024-03-08T02:23:19;2.03;94.26
65203;HTU21D;51788;45.124;38.966;2024-03-08T02:25:46;2.00;94.21
65203;HTU21D;51788;45.124;38.966;2024-03-08T02:28:13;2.02;94.40
65203;HTU21D;51788;45.124;38.966;2024-03-08T02:30:40;2.02;94.33
65203;HTU21D;51788;45.124;38.966;2024-03-08T02:33:06;2.02;94.37
65203;HTU21D;51788;45.124;38.966;2024-03-08T02:35:33;2.07;94.29
65203;HTU21D;51788;45.124;38.966;2024-03-08T02:38:03;2.12;94.38
65203;HTU21D;51788;45.124;38.966;2024-03-08T02:40:29;2.08;94.27
65203;HTU21D;51788;45.124;38.966;2024-03-08T02:42:55;2.10;94.28
65203;HTU21D;51788;45.124;38.966;2024-03-08T02:45:21;2.13;94.32
65203;HTU21D;51788;45.124;38.966;2024-03-08T02:47:47;2.10;94.29
65203;HTU21D;51788;45.124;38.966;2024-03-08T02:50:15;2.13;94.42
65203;HTU21D;51788;45.124;38.966;2024-03-08T02:52:42;2.12;94.45
65203;HTU21D;51788;45.124;38.966;2024-03-08T02:55:09;2.12;94.41
65203;HTU21D;51788;45.124;38.966;2024-03-08T02:57:36;2.11;94.40
65203;HTU21D;51788;45.124;38.966;2024-03-08T03:00:03;2.13;94.37
65203;HTU21D;51788;45.124;38.966;2024-03-08T03:02:34;2.13;94.30
65203;HTU21D;51788;45.124;38.966;2024-03-08T03:05:01;2.11;94.31
65203;HTU21D;51788;45.124;38.966;2024-03-08T03:07:35;2.15;94.33
65203;HTU21D;51788;45.124;38.966;2024-03-08T03:10:02;2.14;94.38
65203;HTU21D;51788;45.124;38.966;2024-03-08T03:12:28;2.15;94.35
65203;HTU21D;51788;45.124;38.966;2024-03-08T03:14:54;2.17;94.39
65203;HTU21D;51788;45.124;38.966;2024-03-08T03:17:25;2.17;94.30
65203;HTU21D;51788;45.124;38.966;2024-03-08T03:19:54;2.16;94.37
65203;HTU21D;51788;45.124;38.966;2024-03-08T03:22:21;2.14;94.37
65203;HTU21D;51788;45.124;38.966;2024-03-08T03:24:47;2.16;94.40
65203;HTU21D;51788;45.124;38.966;2024-03-08T03:27:13;2.19;94.34
65203;HTU21D;51788;45.124;38.966;2024-03-08T03:29:44;2.17;94.28
65203;HTU21D;51788;45.124;38.966;2024-03-08T03:32:15;2.15;94.36
65203;HTU21D;51788;45.124;38.966;2024-03-08T03:34:41;2.14;94.45
65203;HTU21D;51788;45.124;38.966;2024-03-08T03:37:10;2.14;94.50
65203;HTU21D;51788;45.124;38.966;2024-03-08T03:39:39;2.14;94.48
65203;HTU21D;51788;45.124;38.966;2024-03-08T03:42:18;2.20;94.47
65203;HTU21D;51788;45.124;38.966;2024-03-08T03:44:45;2.24;94.30
65203;HTU21D;51788;45.124;38.966;2024-03-08T03:47:13;2.25;94.29
65203;HTU21D;51788;45.124;38.966;2024-03-08T03:49:41;2.30;94.21
65203;HTU21D;51788;45.124;38.966;2024-03-08T03:52:07;2.39;94.06
65203;HTU21D;51788;45.124;38.966;2024-03-08T03:54:33;2.35;93.85
65203;HTU21D;51788;45.124;38.966;2024-03-08T03:56:59;2.37;94.00
65203;HTU21D;51788;45.124;38.966;2024-03-08T03:59:26;2.37;93.92
65203;HTU21D;51788;45.124;38.966;2024-03-08T04:01:53;2.37;93.88
65203;HTU21D;51788;45.124;38.966;2024-03-08T04:04:23;2.41;93.82
65203;HTU21D;51788;45.124;38.966;2024-03-08T04:06:50;2.44;93.69
65203;HTU21D;51788;45.124;38.966;2024-03-08T04:09:17;2.43;93.69
65203;HTU21D;51788;45.124;38.966;2024-03-08T04:11:45;2.42;93.74
65203;HTU21D;51788;45.124;38.966;2024-03-08T04:14:11;2.41;93.71
65203;HTU21D;51788;45.124;38.966;2024-03-08T04:16:37;2.45;93.75
65203;HTU21D;51788;45.124;38.966;2024-03-08T04:19:03;2.46;93.66
65203;HTU21D;51788;45.124;38.966;2024-03-08T04:21:30;2.49;93.65
65203;HTU21D;51788;45.124;38.966;2024-03-08T04:23:56;2.46;93.61
65203;HTU21D;51788;45.124;38.966;2024-03-08T04:26:22;2.43;93.78
65203;HTU21D;51788;45.124;38.966;2024-03-08T04:28:48;2.49;93.66
65203;HTU21D;51788;45.124;38.966;2024-03-08T04:31:14;2.44;93.62
65203;HTU21D;51788;45.124;38.966;2024-03-08T04:33:41;2.44;93.66
65203;HTU21D;51788;45.124;38.966;2024-03-08T04:36:07;2.42;93.62
65203;HTU21D;51788;45.124;38.966;2024-03-08T04:38:33;2.46;93.66
65203;HTU21D;51788;45.124;38.966;2024-03-08T04:41:00;2.47;93.53
65203;HTU21D;51788;45.124;38.966;2024-03-08T04:43:28;2.50;93.43
65203;HTU21D;51788;45.124;38.966;2024-03-08T04:45:56;2.52;93.39
65203;HTU21D;51788;45.124;38.966;2024-03-08T04:48:21;2.50;93.31
65203;HTU21D;51788;45.124;38.966;2024-03-08T04:50:47;2.50;93.24
65203;HTU21D;51788;45.124;38.966;2024-03-08T04:53:13;2.47;93.27
65203;HTU21D;51788;45.124;38.966;2024-03-08T04:55:39;2.51;93.23
65203;HTU21D;51788;45.124;38.966;2024-03-08T04:58:05;2.53;93.08
65203;HTU21D;51788;45.124;38.966;2024-03-08T05:00:32;2.52;93.17
65203;HTU21D;51788;45.124;38.966;2024-03-08T05:02:58;2.51;92.98
65203;HTU21D;51788;45.124;38.966;2024-03-08T05:05:24;2.51;93.13
65203;HTU21D;51788;45.124;38.966;2024-03-08T05:07:51;2.52;93.16
65203;HTU21D;51788;45.124;38.966;2024-03-08T05:10:17;2.58;93.00
65203;HTU21D;51788;45.124;38.966;2024-03-08T05:12:44;2.62;92.88
65203;HTU21D;51788;45.124;38.966;2024-03-08T05:15:10;2.65;92.74
65203;HTU21D;51788;45.124;38.966;2024-03-08T05:17:36;2.55;92.70
65203;HTU21D;51788;45.124;38.966;2024-03-08T05:20:02;2.49;92.91
65203;HTU21D;51788;45.124;38.966;2024-03-08T05:22:29;2.52;92.92
65203;HTU21D;51788;45.124;38.966;2024-03-08T05:24:55;2.45;92.74
65203;HTU21D;51788;45.124;38.966;2024-03-08T05:27:21;2.39;92.92
65203;HTU21D;51788;45.124;38.966;2024-03-08T05:29:47;2.38;92.98
65203;HTU21D;51788;45.124;38.966;2024-03-08T05:32:13;2.39;92.92
65203;HTU21D;51788;45.124;38.966;2024-03-08T05:34:39;2.38;92.94
65203;HTU21D;51788;45.124;38.966;2024-03-08T05:37:05;2.40;92.80
65203;HTU21D;51788;45.124;38.966;2024-03-08T05:39:32;2.40;92.85
65203;HTU21D;51788;45.124;38.966;2024-03-08T05:41:58;2.39;92.84
65203;HTU21D;51788;45.124;38.966;2024-03-08T05:44:24;2.39;92.73
65203;HTU21D;51788;45.124;38.966;2024-03-08T05:46:50;2.32;92.79
65203;HTU21D;51788;45.124;38.966;2024-03-08T05:49:16;2.27;92.82
65203;HTU21D;51788;45.124;38.966;2024-03-08T05:51:42;2.28;92.88
65203;HTU21D;51788;45.124;38.966;2024-03-08T05:54:09;2.29;92.87
65203;HTU21D;51788;45.124;38.966;2024-03-08T05:56:36;2.34;92.85
65203;HTU21D;51788;45.124;38.966;2024-03-08T05:59:03;2.40;92.80
65203;HTU21D;51788;45.124;38.966;2024-03-08T06:01:29;2.39;92.66
65203;HTU21D;51788;45.124;38.966;2024-03-08T06:03:55;2.37;92.67
65203;HTU21D;51788;45.124;38.966;2024-03-08T06:06:25;2.35;92.79
65203;HTU21D;51788;45.124;38.966;2024-03-08T06:08:52;2.31;92.80
65203;HTU21D;51788;45.124;38.966;2024-03-08T06:11:19;2.32;92.73
65203;HTU21D;51788;45.124;38.966;2024-03-08T06:13:46;2.35;92.71
65203;HTU21D;51788;45.124;38.966;2024-03-08T06:16:12;2.37;92.66
65203;HTU21D;51788;45.124;38.966;2024-03-08T06:18:38;2.32;92.65
65203;HTU21D;51788;45.124;38.966;2024-03-08T06:21:07;2.27;92.75
65203;HTU21D;51788;45.124;38.966;2024-03-08T06:23:35;2.25;92.73
65203;HTU21D;51788;45.124;38.966;2024-03-08T06:26:07;2.22;92.77
65203;HTU21D;51788;45.124;38.966;2024-03-08T06:28:33;2.27;92.83
65203;HTU21D;51788;45.124;38.966;2024-03-08T06:31:01;2.36;92.63
65203;HTU21D;51788;45.124;38.966;2024-03-08T06:33:27;2.35;92.54
65203;HTU21D;51788;45.124;38.966;2024-03-08T06:35:54;2.45;92.55
65203;HTU21D;51788;45.124;38.966;2024-03-08T06:38:23;2.47;92.48
65203;HTU21D;51788;45.124;38.966;2024-03-08T06:40:49;2.49;92.36
65203;HTU21D;51788;45.124;38.966;2024-03-08T06:43:17;2.43;92.40
65203;HTU21D;51788;45.124;38.966;2024-03-08T06:45:44;2.44;92.56
65203;HTU21D;51788;45.124;38.966;2024-03-08T06:48:17;2.44;92.58
65203;HTU21D;51788;45.124;38.966;2024-03-08T06:50:44;2.51;92.59
65203;HTU21D;51788;45.124;38.966;2024-03-08T06:53:14;2.54;92.53
65203;HTU21D;51788;45.124;38.966;2024-03-08T06:55:40;2.54;92.37
65203;HTU21D;51788;45.124;38.966;2024-03-08T06:58:06;2.50;92.46
65203;HTU21D;51788;45.124;38.966;2024-03-08T07:00:33;2.54;92.54
65203;HTU21D;51788;45.124;38.966;2024-03-08T07:02:59;2.60;92.47
65203;HTU21D;51788;45.124;38.966;2024-03-08T07:05:31;2.66;92.40
65203;HTU21D;51788;45.124;38.966;2024-03-08T07:07:58;2.66;92.20
65203;HTU21D;51788;45.124;38.966;2024-03-08T07:10:24;2.64;92.26
65203;HTU21D;51788;45.124;38.966;2024-03-08T07:12:51;2.61;92.35
65203;HTU21D;51788;45.124;38.966;2024-03-08T07:15:17;2.67;92.38
65203;HTU21D;51788;45.124;38.966;2024-03-08T07:17:48;2.65;92.24
65203;HTU21D;51788;45.124;38.966;2024-03-08T07:20:14;2.58;92.18
65203;HTU21D;51788;45.124;38.966;2024-03-08T07:22:45;2.55;92.48
65203;HTU21D;51788;45.124;38.966;2024-03-08T07:25:16;2.58;92.48
65203;HTU21D;51788;45.124;38.966;2024-03-08T07:27:51;2.64;92.43
65203;HTU21D;51788;45.124;38.966;2024-03-08T07:30:21;2.68;92.24
65203;HTU21D;51788;45.124;38.966;2024-03-08T07:33:06;2.67;92.22
65203;HTU21D;51788;45.124;38.966;2024-03-08T07:35:33;2.64;92.17
65203;HTU21D;51788;45.124;38.966;2024-03-08T07:38:04;2.64;92.14
65203;HTU21D;51788;45.124;38.966;2024-03-08T07:40:40;2.62;92.30
65203;HTU21D;51788;45.124;38.966;2024-03-08T07:43:10;2.67;92.30
65203;HTU21D;51788;45.124;38.966;2024-03-08T07:45:39;2.70;92.08
65203;HTU21D;51788;45.124;38.966;2024-03-08T07:48:06;2.69;92.04
65203;HTU21D;51788;45.124;38.966;2024-03-08T07:50:39;2.70;92.08
65203;HTU21D;51788;45.124;38.966;2024-03-08T07:53:08;2.72;92.07
65203;HTU21D;51788;45.124;38.966;2024-03-08T07:55:35;2.76;92.06
65203;HTU21D;51788;45.124;38.966;2024-03-08T07:58:02;2.79;91.95
65203;HTU21D;51788;45.124;38.966;2024-03-08T08:00:32;2.70;91.88
65203;HTU21D;51788;45.124;38.966;2024-03-08T08:02:58;2.69;92.14
65203;HTU21D;51788;45.124;38.966;2024-03-08T08:05:24;2.74;92.06
65203;HTU21D;51788;45.124;38.966;2024-03-08T08:07:50;2.78;91.92
65203;HTU21D;51788;45.124;38.966;2024-03-08T08:10:17;2.75;92.01
65203;HTU21D;51788;45.124;38.966;2024-03-08T08:12:50;2.82;91.86
65203;HTU21D;51788;45.124;38.966;2024-03-08T08:15:20;2.89;91.86
65203;HTU21D;51788;45.124;38.966;2024-03-08T08:17:46;2.93;91.65
65203;HTU21D;51788;45.124;38.966;2024-03-08T08:20:13;2.90;91.56
65203;HTU21D;51788;45.124;38.966;2024-03-08T08:22:39;2.88;91.76
65203;HTU21D;51788;45.124;38.966;2024-03-08T08:25:07;2.98;91.68
65203;HTU21D;51788;45.124;38.966;2024-03-08T08:27:33;3.02;91.53
65203;HTU21D;51788;45.124;38.966;2024-03-08T08:29:59;3.05;91.45
65203;HTU21D;51788;45.124;38.966;2024-03-08T08:32:26;3.10;91.27
65203;HTU21D;51788;45.124;38.966;2024-03-08T08:34:52;3.16;91.21
65203;HTU21D;51788;45.124;38.966;2024-03-08T08:37:18;3.10;91.11
65203;HTU21D;51788;45.124;38.966;2024-03-08T08:39:44;3.02;91.32
65203;HTU21D;51788;45.124;38.966;2024-03-08T08:42:10;3.01;91.47
65203;HTU21D;51788;45.124;38.966;2024-03-08T08:44:36;2.99;91.47
65203;HTU21D;51788;45.124;38.966;2024-03-08T08:47:03;2.97;91.38
65203;HTU21D;51788;45.124;38.966;2024-03-08T08:49:29;2.93;91.56
65203;HTU21D;51788;45.124;38.966;2024-03-08T08:51:56;2.90;91.47
65203;HTU21D;51788;45.124;38.966;2024-03-08T08:54:24;2.84;91.53
65203;HTU21D;51788;45.124;38.966;2024-03-08T08:56:51;2.81;91.64
65203;HTU21D;51788;45.124;38.966;2024-03-08T08:59:17;2.83;91.66
65203;HTU21D;51788;45.124;38.966;2024-03-08T09:01:46;2.88;91.56
65203;HTU21D;51788;45.124;38.966;2024-03-08T09:04:15;2.96;91.42
65203;HTU21D;51788;45.124;38.966;2024-03-08T09:06:43;3.04;91.12
65203;HTU21D;51788;45.124;38.966;2024-03-08T09:09:10;3.03;91.08
65203;HTU21D;51788;45.124;38.966;2024-03-08T09:11:39;3.13;91.02
65203;HTU21D;51788;45.124;38.966;2024-03-08T09:14:08;3.13;90.86
65203;HTU21D;51788;45.124;38.966;2024-03-08T09:16:37;3.18;90.89
65203;HTU21D;51788;45.124;38.966;2024-03-08T09:19:03;3.29;90.68
65203;HTU21D;51788;45.124;38.966;2024-03-08T09:21:29;3.38;90.41
65203;HTU21D;51788;45.124;38.966;2024-03-08T09:23:55;3.38;90.31
65203;HTU21D;51788;45.124;38.966;2024-03-08T09:26:21;3.35;90.30
65203;HTU21D;51788;45.124;38.966;2024-03-08T09:28:47;3.33;90.37
65203;HTU21D;51788;45.124;38.966;2024-03-08T09:31:13;3.24;90.50
65203;HTU21D;51788;45.124;38.966;2024-03-08T09:33:42;3.14;90.76
65203;HTU21D;51788;45.124;38.966;2024-03-08T09:36:08;3.15;90.81
65203;HTU21D;51788;45.124;38.966;2024-03-08T09:38:34;3.17;90.74
65203;HTU21D;51788;45.124;38.966;2024-03-08T09:41:00;3.16;90.54
65203;HTU21D;51788;45.124;38.966;2024-03-08T09:43:30;3.10;90.69
65203;HTU21D;51788;45.124;38.966;2024-03-08T09:45:58;3.10;90.70
65203;HTU21D;51788;45.124;38.966;2024-03-08T09:48:26;3.13;90.65
65203;HTU21D;51788;45.124;38.966;2024-03-08T09:50:52;3.12;90.65
65203;HTU21D;51788;45.124;38.966;2024-03-08T09:53:20;3.12;90.65
65203;HTU21D;51788;45.124;38.966;2024-03-08T09:55:48;3.09;90.66
65203;HTU21D;51788;45.124;38.966;2024-03-08T09:58:15;3.05;90.68
65203;HTU21D;51788;45.124;38.966;2024-03-08T10:00:47;3.09;90.53
65203;HTU21D;51788;45.124;38.966;2024-03-08T10:03:13;3.09;90.51
65203;HTU21D;51788;45.124;38.966;2024-03-08T10:05:41;3.16;90.28
65203;HTU21D;51788;45.124;38.966;2024-03-08T10:08:07;3.13;90.23
65203;HTU21D;51788;45.124;38.966;2024-03-08T10:10:34;3.18;90.24
65203;HTU21D;51788;45.124;38.966;2024-03-08T10:13:01;3.17;89.79
65203;HTU21D;51788;45.124;38.966;2024-03-08T10:15:27;3.08;90.04
65203;HTU21D;51788;45.124;38.966;2024-03-08T10:17:57;3.09;90.14
65203;HTU21D;51788;45.124;38.966;2024-03-08T10:20:23;3.10;89.97
65203;HTU21D;51788;45.124;38.966;2024-03-08T10:22:49;3.08;89.92
65203;HTU21D;51788;45.124;38.966;2024-03-08T10:25:16;3.08;90.03
65203;HTU21D;51788;45.124;38.966;2024-03-08T10:27:43;3.01;90.12
65203;HTU21D;51788;45.124;38.966;2024-03-08T10:30:18;2.96;90.23
65203;HTU21D;51788;45.124;38.966;2024-03-08T10:32:47;2.88;90.34
65203;HTU21D;51788;45.124;38.966;2024-03-08T10:35:14;2.93;90.39
65203;HTU21D;51788;45.124;38.966;2024-03-08T10:37:50;2.98;90.18
65203;HTU21D;51788;45.124;38.966;2024-03-08T10:40:25;3.05;89.94
65203;HTU21D;51788;45.124;38.966;2024-03-08T10:42:56;3.03;89.88
65203;HTU21D;51788;45.124;38.966;2024-03-08T10:47:58;2.98;90.02
65203;HTU21D;51788;45.124;38.966;2024-03-08T10:50:27;2.88;90.11
65203;HTU21D;51788;45.124;38.966;2024-03-08T10:52:57;2.91;90.35
65203;HTU21D;51788;45.124;38.966;2024-03-08T10:55:26;2.96;90.18
65203;HTU21D;51788;45.124;38.966;2024-03-08T10:57:53;2.87;90.22
65203;HTU21D;51788;45.124;38.966;2024-03-08T11:00:20;2.93;90.19
65203;HTU21D;51788;45.124;38.966;2024-03-08T11:02:52;2.94;90.10
65203;HTU21D;51788;45.124;38.966;2024-03-08T11:08:24;2.98;90.05
65203;HTU21D;51788;45.124;38.966;2024-03-08T11:10:54;2.98;89.96
65203;HTU21D;51788;45.124;38.966;2024-03-08T11:13:41;2.96;89.90
65203;HTU21D;51788;45.124;38.966;2024-03-08T11:21:37;3.06;89.74
65203;HTU21D;51788;45.124;38.966;2024-03-08T11:24:08;3.06;89.63
65203;HTU21D;51788;45.124;38.966;2024-03-08T11:26:37;3.06;89.73
65203;HTU21D;51788;45.124;38.966;2024-03-08T11:32:17;3.10;89.66
65203;HTU21D;51788;45.124;38.966;2024-03-08T11:34:48;3.16;89.47
65203;HTU21D;51788;45.124;38.966;2024-03-08T11:37:20;3.13;89.63
65203;HTU21D;51788;45.124;38.966;2024-03-08T11:39:53;3.13;89.67
65203;HTU21D;51788;45.124;38.966;2024-03-08T11:42:25;3.10;89.61
65203;HTU21D;51788;45.124;38.966;2024-03-08T11:44:54;3.09;89.66
65203;HTU21D;51788;45.124;38.966;2024-03-08T11:47:20;3.11;89.61
65203;HTU21D;51788;45.124;38.966;2024-03-08T11:49:47;3.11;89.57
65203;HTU21D;51788;45.124;38.966;2024-03-08T11:52:17;3.12;89.60
65203;HTU21D;51788;45.124;38.966;2024-03-08T11:54:54;3.11;89.52
65203;HTU21D;51788;45.124;38.966;2024-03-08T11:57:22;3.08;89.78
65203;HTU21D;51788;45.124;38.966;2024-03-08T11:59:55;3.04;89.73
65203;HTU21D;51788;45.124;38.966;2024-03-08T12:02:22;3.00;89.89
65203;HTU21D;51788;45.124;38.966;2024-03-08T12:04:56;3.00;89.92
65203;HTU21D;51788;45.124;38.966;2024-03-08T12:07:23;3.06;89.95
65203;HTU21D;51788;45.124;38.966;2024-03-08T12:10:14;3.13;89.70
65203;HTU21D;51788;45.124;38.966;2024-03-08T12:12:51;3.11;89.71
65203;HTU21D;51788;45.124;38.966;2024-03-08T12:15:18;3.11;89.74
65203;HTU21D;51788;45.124;38.966;2024-03-08T12:17:46;3.09;89.74
65203;HTU21D;51788;45.124;38.966;2024-03-08T12:20:26;3.08;89.78
65203;HTU21D;51788;45.124;38.966;2024-03-08T12:22:54;3.05;89.84
65203;HTU21D;51788;45.124;38.966;2024-03-08T12:25:31;3.10;89.84
65203;HTU21D;51788;45.124;38.966;2024-03-08T12:28:09;3.06;89.64
65203;HTU21D;51788;45.124;38.966;2024-03-08T12:30:51;3.03;89.82
65203;HTU21D;51788;45.124;38.966;2024-03-08T12:33:19;3.00;89.84
65203;HTU21D;51788;45.124;38.966;2024-03-08T12:35:52;2.97;89.93
65203;HTU21D;51788;45.124;38.966;2024-03-08T12:38:20;2.99;89.93
65203;HTU21D;51788;45.124;38.966;2024-03-08T12:40:50;2.96;89.84
65203;HTU21D;51788;45.124;38.966;2024-03-08T12:43:16;2.88;89.85
65203;HTU21D;51788;45.124;38.966;2024-03-08T12:45:43;2.87;90.10
65203;HTU21D;51788;45.124;38.966;2024-03-08T12:48:15;2.93;89.90
65203;HTU21D;51788;45.124;38.966;2024-03-08T12:50:41;2.94;89.89
65203;HTU21D;51788;45.124;38.966;2024-03-08T12:53:13;3.00;89.80
65203;HTU21D;51788;45.124;38.966;2024-03-08T12:55:39;3.08;89.63
65203;HTU21D;51788;45.124;38.966;2024-03-08T12:58:06;2.98;89.61
65203;HTU21D;51788;45.124;38.966;2024-03-08T13:00:34;2.99;89.82
65203;HTU21D;51788;45.124;38.966;2024-03-08T13:03:02;3.04;89.84
65203;HTU21D;51788;45.124;38.966;2024-03-08T13:05:28;3.11;89.64
65203;HTU21D;51788;45.124;38.966;2024-03-08T13:07:55;3.20;89.53
65203;HTU21D;51788;45.124;38.966;2024-03-08T13:10:22;3.20;89.32
65203;HTU21D;51788;45.124;38.966;2024-03-08T13:12:48;3.16;89.44
65203;HTU21D;51788;45.124;38.966;2024-03-08T13:15:15;3.13;89.46
65203;HTU21D;51788;45.124;38.966;2024-03-08T13:17:49;3.14;89.38
65203;HTU21D;51788;45.124;38.966;2024-03-08T13:20:15;3.16;89.28
65203;HTU21D;51788;45.124;38.966;2024-03-08T13:22:48;3.10;89.20
65203;HTU21D;51788;45.124;38.966;2024-03-08T13:25:14;3.09;89.35
65203;HTU21D;51788;45.124;38.966;2024-03-08T13:27:41;3.08;89.22
65203;HTU21D;51788;45.124;38.966;2024-03-08T13:30:09;3.12;89.20
65203;HTU21D;51788;45.124;38.966;2024-03-08T13:32:42;3.17;89.09
65203;HTU21D;51788;45.124;38.966;2024-03-08T13:35:11;3.28;89.07
65203;HTU21D;51788;45.124;38.966;2024-03-08T13:37:41;3.30;88.67
65203;HTU21D;51788;45.124;38.966;2024-03-08T13:40:08;3.38;88.74
65203;HTU21D;51788;45.124;38.966;2024-03-08T13:42:42;3.47;88.71
65203;HTU21D;51788;45.124;38.966;2024-03-08T13:45:09;3.57;88.59
65203;HTU21D;51788;45.124;38.966;2024-03-08T13:47:39;3.62;88.38
65203;HTU21D;51788;45.124;38.966;2024-03-08T13:50:06;3.53;88.52
65203;HTU21D;51788;45.124;38.966;2024-03-08T13:52:33;3.40;88.77
65203;HTU21D;51788;45.124;38.966;2024-03-08T13:55:01;3.30;89.06
65203;HTU21D;51788;45.124;38.966;2024-03-08T13:57:26;3.25;89.25
65203;HTU21D;51788;45.124;38.966;2024-03-08T13:59:55;3.28;89.24
65203;HTU21D;51788;45.124;38.966;2024-03-08T14:02:21;3.30;89.24
65203;HTU21D;51788;45.124;38.966;2024-03-08T14:04:48;3.38;89.02
65203;HTU21D;51788;45.124;38.966;2024-03-08T14:07:15;3.32;88.83
65203;HTU21D;51788;45.124;38.966;2024-03-08T14:09:41;3.29;88.96
65203;HTU21D;51788;45.124;38.966;2024-03-08T14:12:09;3.23;89.04
65203;HTU21D;51788;45.124;38.966;2024-03-08T14:14:35;3.20;89.18
65203;HTU21D;51788;45.124;38.966;2024-03-08T14:17:01;3.19;89.20
65203;HTU21D;51788;45.124;38.966;2024-03-08T14:19:28;3.20;89.12
65203;HTU21D;51788;45.124;38.966;2024-03-08T14:21:56;3.27;89.06
65203;HTU21D;51788;45.124;38.966;2024-03-08T14:24:25;3.33;88.89
65203;HTU21D;51788;45.124;38.966;2024-03-08T14:26:51;3.32;88.66
65203;HTU21D;51788;45.124;38.966;2024-03-08T14:29:17;3.30;88.55
65203;HTU21D;51788;45.124;38.966;2024-03-08T14:31:46;3.21;88.70
65203;HTU21D;51788;45.124;38.966;2024-03-08T14:34:12;3.19;88.93
65203;HTU21D;51788;45.124;38.966;2024-03-08T14:36:40;3.15;88.91
65203;HTU21D;51788;45.124;38.966;2024-03-08T14:39:06;3.13;88.95
65203;HTU21D;51788;45.124;38.966;2024-03-08T14:41:33;3.15;89.02
65203;HTU21D;51788;45.124;38.966;2024-03-08T14:43:59;3.23;88.93
65203;HTU21D;51788;45.124;38.966;2024-03-08T14:46:25;3.33;88.73
65203;HTU21D;51788;45.124;38.966;2024-03-08T14:48:52;3.32;88.56
65203;HTU21D;51788;45.124;38.966;2024-03-08T14:51:19;3.34;88.67
65203;HTU21D;51788;45.124;38.966;2024-03-08T14:53:48;3.33;88.53
65203;HTU21D;51788;45.124;38.966;2024-03-08T14:56:15;3.30;88.56
65203;HTU21D;51788;45.124;38.966;2024-03-08T14:58:47;3.28;88.70
65203;HTU21D;51788;45.124;38.966;2024-03-08T15:01:17;3.23;88.74
65203;HTU21D;51788;45.124;38.966;2024-03-08T15:03:48;3.15;88.81
65203;HTU21D;51788;45.124;38.966;2024-03-08T15:06:15;3.12;88.91
65203;HTU21D;51788;45.124;38.966;2024-03-08T15:08:44;3.11;88.88
65203;HTU21D;51788;45.124;38.966;2024-03-08T15:11:10;3.15;88.71
65203;HTU21D;51788;45.124;38.966;2024-03-08T15:13:35;3.11;88.65
65203;HTU21D;51788;45.124;38.966;2024-03-08T15:16:08;3.09;88.76
65203;HTU21D;51788;45.124;38.966;2024-03-08T15:18:35;3.12;88.74
65203;HTU21D;51788;45.124;38.966;2024-03-08T15:21:05;3.21;88.57
65203;HTU21D;51788;45.124;38.966;2024-03-08T15:23:35;3.32;88.36
65203;HTU21D;51788;45.124;38.966;2024-03-08T15:26:02;3.36;88.12
65203;HTU21D;51788;45.124;38.966;2024-03-08T15:28:31;3.32;88.19
65203;HTU21D;51788;45.124;38.966;2024-03-08T15:31:05;3.29;88.15
65203;HTU21D;51788;45.124;38.966;2024-03-08T15:33:34;3.24;88.26